createdAt,value
2018-12-16T00:01:29.677Z,79.51
2018-12-16T00:03:59.640Z,79.28
2018-12-16T00:06:29.906Z,79.50
2018-12-16T00:09:00.000Z,79.87
2018-12-16T00:11:29.948Z,79.77
2018-12-16T00:13:59.956Z,79.84
2018-12-16T00:16:29.979Z,80.30
2018-12-16T00:18:59.980Z,80.42
2018-12-16T00:21:30.006Z,80.56
2018-12-16T00:24:00.046Z,80.70
2018-12-16T00:29:21.326Z,80.95
2018-12-16T00:31:51.367Z,81.06
2018-12-16T00:34:21.386Z,81.20
2018-12-16T00:36:51.397Z,81.44
2018-12-16T00:39:21.346Z,81.49
2018-12-16T00:41:51.427Z,81.71
2018-12-16T00:44:21.560Z,82.14
2018-12-16T00:46:51.557Z,81.70
2018-12-16T00:49:21.579Z,81.73
2018-12-16T00:51:51.587Z,81.93
2018-12-16T00:54:21.551Z,82.01
2018-12-16T00:56:51.546Z,82.33
2018-12-16T00:59:21.551Z,81.95
2018-12-16T01:01:51.592Z,82.10
2018-12-16T01:04:21.668Z,82.01
2018-12-16T01:06:51.786Z,82.21
2018-12-16T01:09:21.898Z,82.37
2018-12-16T01:11:51.910Z,82.48
2018-12-16T01:14:22.041Z,82.59
2018-12-16T01:16:51.961Z,82.66
2018-12-16T01:19:22.059Z,82.50
2018-12-16T01:21:51.996Z,82.85
2018-12-16T01:24:22.186Z,82.59
2018-12-16T01:26:51.995Z,82.80
2018-12-16T01:29:22.014Z,82.86
2018-12-16T01:31:52.051Z,83.11
2018-12-16T01:34:22.071Z,83.07
2018-12-16T01:36:52.075Z,83.26
2018-12-16T01:39:22.088Z,83.36
2018-12-16T01:41:52.197Z,83.62
2018-12-16T01:44:22.111Z,83.70
2018-12-16T01:46:52.056Z,83.84
2018-12-16T01:49:22.046Z,83.69
2018-12-16T01:51:52.056Z,84.14
2018-12-16T01:54:21.976Z,84.18
2018-12-16T01:56:51.976Z,84.46
2018-12-16T01:59:22.007Z,84.34
2018-12-16T02:01:56.026Z,84.66
2018-12-16T02:04:26.027Z,84.76
2018-12-16T02:06:55.981Z,84.54
2018-12-16T02:09:26.059Z,85.15
2018-12-16T02:11:56.027Z,84.73
2018-12-16T02:14:26.216Z,85.06
2018-12-16T02:16:56.501Z,84.88
2018-12-16T02:19:26.527Z,84.75
2018-12-16T02:21:56.529Z,84.85
2018-12-16T02:24:26.526Z,84.94
2018-12-16T02:26:56.577Z,85.28
2018-12-16T02:29:26.476Z,85.11
2018-12-16T02:31:56.609Z,85.24
2018-12-16T02:34:26.607Z,85.31
2018-12-16T02:36:56.640Z,85.15
2018-12-16T02:39:26.556Z,85.25
2018-12-16T02:41:56.557Z,85.48
2018-12-16T02:44:26.516Z,85.46
2018-12-16T02:46:56.584Z,85.68
2018-12-16T02:49:26.484Z,85.55
2018-12-16T02:51:56.611Z,85.58
2018-12-16T02:54:26.628Z,86.04
2018-12-16T02:56:58.261Z,85.84
2018-12-16T02:59:28.199Z,86.09
2018-12-16T03:01:58.314Z,86.21
2018-12-16T03:04:28.246Z,85.99
2018-12-16T03:06:58.357Z,85.67
2018-12-16T03:09:28.382Z,86.41
2018-12-16T03:11:58.460Z,86.25
2018-12-16T03:14:28.499Z,86.36
2018-12-16T03:16:58.739Z,86.71
2018-12-16T03:19:29.442Z,86.53
2018-12-16T03:21:59.510Z,86.59
2018-12-16T03:24:29.688Z,86.99
2018-12-16T03:26:59.760Z,86.99
2018-12-16T03:29:29.918Z,87.27
2018-12-16T03:31:59.981Z,86.99
2018-12-16T03:34:29.942Z,86.95
2018-12-16T03:36:59.903Z,87.18
2018-12-16T03:39:29.876Z,87.37
2018-12-16T03:41:59.898Z,87.31
2018-12-16T03:44:29.960Z,87.34
2018-12-16T03:46:59.912Z,87.35
2018-12-16T03:49:29.882Z,87.53
2018-12-16T03:51:59.860Z,87.70
2018-12-16T03:54:29.875Z,87.50
2018-12-16T03:56:59.987Z,87.58
2018-12-16T03:59:30.109Z,87.49
2018-12-16T04:02:00.113Z,87.81
2018-12-16T04:04:30.137Z,87.74
2018-12-16T04:07:00.460Z,87.33
2018-12-16T04:09:30.467Z,87.85
2018-12-16T04:12:00.508Z,87.77
2018-12-16T04:14:30.498Z,87.98
2018-12-16T04:17:00.531Z,88.06
2018-12-16T04:19:30.638Z,88.02
2018-12-16T04:22:00.648Z,88.21
2018-12-16T04:24:30.758Z,87.90
2018-12-16T04:27:00.871Z,88.26
2018-12-16T04:29:31.112Z,87.92
2018-12-16T04:32:01.139Z,88.06
2018-12-16T04:34:31.237Z,87.92
2018-12-16T04:37:01.346Z,88.04
2018-12-16T04:39:31.271Z,87.97
2018-12-16T04:42:01.477Z,87.89
2018-12-16T04:44:31.507Z,88.18
2018-12-16T04:47:01.714Z,88.05
2018-12-16T04:49:31.653Z,88.20
2018-12-16T04:52:01.749Z,87.80
2018-12-16T04:54:31.891Z,87.96
2018-12-16T04:57:01.932Z,87.99
2018-12-16T04:59:32.007Z,87.61
2018-12-16T05:02:02.227Z,87.67
2018-12-16T05:04:32.337Z,87.87
2018-12-16T05:07:02.387Z,87.62
2018-12-16T05:09:32.566Z,87.91
2018-12-16T05:12:02.708Z,87.53
2018-12-16T05:14:33.106Z,87.96
2018-12-16T05:17:03.014Z,88.05
2018-12-16T05:19:33.144Z,87.70
2018-12-16T05:22:03.257Z,87.97
2018-12-16T05:24:33.557Z,88.12
2018-12-16T05:27:03.621Z,88.11
2018-12-16T05:29:33.617Z,88.23
2018-12-16T05:32:03.727Z,87.81
2018-12-16T05:34:33.857Z,87.90
2018-12-16T05:37:03.788Z,87.49
2018-12-16T05:39:33.878Z,87.45
2018-12-16T05:42:03.870Z,87.61
2018-12-16T05:44:33.905Z,87.65
2018-12-16T05:47:03.897Z,87.24
2018-12-16T05:49:33.936Z,87.81
2018-12-16T05:52:04.066Z,87.85
2018-12-16T05:54:34.173Z,87.93
2018-12-16T05:57:04.197Z,87.80
2018-12-16T05:59:34.416Z,87.83
2018-12-16T06:02:04.411Z,87.81
2018-12-16T06:04:34.447Z,88.08
2018-12-16T06:07:04.467Z,87.70
2018-12-16T06:09:34.465Z,88.11
2018-12-16T06:12:04.490Z,87.93
2018-12-16T06:14:34.501Z,87.58
2018-12-16T06:17:04.413Z,87.95
2018-12-16T06:19:34.351Z,87.79
2018-12-16T06:22:04.336Z,87.51
2018-12-16T06:24:34.368Z,87.77
2018-12-16T06:27:04.590Z,87.66
2018-12-16T06:29:34.791Z,87.77
2018-12-16T06:32:04.910Z,87.79
2018-12-16T06:34:34.861Z,87.35
2018-12-16T06:37:05.047Z,87.31
2018-12-16T06:39:35.168Z,87.11
2018-12-16T06:42:05.176Z,86.86
2018-12-16T06:44:35.306Z,86.34
2018-12-16T06:47:05.316Z,85.60
2018-12-16T06:49:35.280Z,85.67
2018-12-16T06:52:05.250Z,86.49
2018-12-16T06:54:35.322Z,86.58
2018-12-16T06:57:05.305Z,86.83
2018-12-16T06:59:35.482Z,87.25
2018-12-16T07:02:05.569Z,87.14
2018-12-16T07:04:36.136Z,87.07
2018-12-16T07:07:06.126Z,87.14
2018-12-16T07:09:36.576Z,87.35
2018-12-16T07:12:06.574Z,87.47
2018-12-16T07:14:36.599Z,87.77
2018-12-16T07:17:06.559Z,87.69
2018-12-16T07:19:36.529Z,87.76
2018-12-16T07:22:06.564Z,88.04
2018-12-16T07:24:36.695Z,87.75
2018-12-16T07:27:07.180Z,87.77
2018-12-16T07:29:37.520Z,87.67
2018-12-16T07:32:07.660Z,87.76
2018-12-16T07:34:38.045Z,87.56
2018-12-16T07:37:08.077Z,87.42
2018-12-16T07:39:38.661Z,87.45
2018-12-16T07:42:08.939Z,87.54
2018-12-16T07:44:38.964Z,87.42
2018-12-16T07:47:09.300Z,87.31
2018-12-16T07:49:39.590Z,86.66
2018-12-16T07:52:09.935Z,86.95
2018-12-16T07:54:40.027Z,87.40
2018-12-16T07:57:10.000Z,87.11
2018-12-16T07:59:40.045Z,86.60
2018-12-16T08:02:10.486Z,86.59
2018-12-16T08:04:40.606Z,86.42
2018-12-16T08:07:10.529Z,86.46
2018-12-16T08:09:40.736Z,86.98
2018-12-16T08:12:10.743Z,86.96
2018-12-16T08:14:40.950Z,86.77
2018-12-16T08:17:10.880Z,86.72
2018-12-16T08:19:41.306Z,86.85
2018-12-16T08:22:11.231Z,86.55
2018-12-16T08:24:41.669Z,85.93
2018-12-16T08:27:12.128Z,85.79
2018-12-16T08:29:43.001Z,85.63
2018-12-16T08:32:12.896Z,85.49
2018-12-16T08:34:42.936Z,85.42
2018-12-16T08:37:13.357Z,85.41
2018-12-16T08:39:43.630Z,85.14
2018-12-16T08:42:13.706Z,85.20
2018-12-16T08:44:43.938Z,85.58
2018-12-16T08:47:13.997Z,84.96
2018-12-16T08:49:44.057Z,85.46
2018-12-16T08:52:14.267Z,85.44
2018-12-16T08:54:44.683Z,85.61
2018-12-16T08:57:14.596Z,85.68
2018-12-16T08:59:44.610Z,85.20
2018-12-16T09:02:14.747Z,85.25
2018-12-16T09:04:44.746Z,85.39
2018-12-16T09:07:15.751Z,85.63
2018-12-16T09:09:45.836Z,85.62
2018-12-16T09:12:15.927Z,85.86
2018-12-16T09:14:46.559Z,85.69
2018-12-16T09:17:16.868Z,85.04
2018-12-16T09:19:46.886Z,85.23
2018-12-16T09:22:17.192Z,84.95
2018-12-16T09:24:47.173Z,84.82
2018-12-16T09:27:17.442Z,85.32
2018-12-16T09:29:47.877Z,84.39
2018-12-16T09:32:17.916Z,84.53
2018-12-16T09:34:47.998Z,84.51
2018-12-16T09:37:18.027Z,84.04
2018-12-16T09:39:48.032Z,83.88
2018-12-16T09:42:18.926Z,84.66
2018-12-16T09:44:49.091Z,84.57
2018-12-16T09:47:19.200Z,84.70
2018-12-16T09:49:49.227Z,84.49
2018-12-16T09:52:19.336Z,83.97
2018-12-16T09:54:49.781Z,83.77
2018-12-16T09:57:19.918Z,83.61
2018-12-16T09:59:50.007Z,83.33
2018-12-16T10:02:21.232Z,83.37
2018-12-16T10:04:51.368Z,83.51
2018-12-16T10:07:21.471Z,83.65
2018-12-16T10:09:52.317Z,83.89
2018-12-16T10:12:22.311Z,83.26
2018-12-16T10:14:52.336Z,83.06
2018-12-16T10:17:22.641Z,83.31
2018-12-16T10:19:52.687Z,84.23
2018-12-16T10:22:23.025Z,84.37
2018-12-16T10:24:53.361Z,83.95
2018-12-16T10:27:23.958Z,84.15
2018-12-16T10:29:53.982Z,83.91
2018-12-16T10:32:24.136Z,83.23
2018-12-16T10:34:54.100Z,83.07
2018-12-16T10:37:24.216Z,83.48
2018-12-16T10:39:54.150Z,82.93
2018-12-16T10:42:24.473Z,81.96
2018-12-16T10:44:54.480Z,81.87
2018-12-16T10:47:24.496Z,81.97
2018-12-16T10:49:54.507Z,82.41
2018-12-16T10:52:24.727Z,82.76
2018-12-16T10:54:58.416Z,83.36
2018-12-16T10:57:26.810Z,83.66
2018-12-16T10:59:56.812Z,83.17
2018-12-16T11:02:26.837Z,82.33
2018-12-16T11:04:56.958Z,82.65
2018-12-16T11:07:27.071Z,82.75
2018-12-16T11:09:57.186Z,83.09
2018-12-16T11:12:27.301Z,82.76
2018-12-16T11:14:57.386Z,82.41
2018-12-16T11:17:27.429Z,82.73
2018-12-16T11:19:57.556Z,83.24
2018-12-16T11:22:27.570Z,83.57
2018-12-16T11:24:58.011Z,83.23
2018-12-16T11:27:27.997Z,83.11
2018-12-16T11:29:58.028Z,83.26
2018-12-16T11:32:28.042Z,83.54
2018-12-16T11:34:58.087Z,83.76
2018-12-16T11:37:28.164Z,83.74
2018-12-16T11:39:58.296Z,83.44
2018-12-16T11:42:28.308Z,83.48
2018-12-16T11:44:58.310Z,83.49
2018-12-16T11:47:28.270Z,83.45
2018-12-16T11:49:58.342Z,83.01
2018-12-16T11:52:28.381Z,82.40
2018-12-16T11:54:58.346Z,82.57
2018-12-16T11:57:28.508Z,82.29
2018-12-16T11:59:59.222Z,82.01
2018-12-16T12:02:32.796Z,81.53
2018-12-16T12:05:01.244Z,81.32
2018-12-16T12:07:31.316Z,81.19
2018-12-16T12:10:01.286Z,81.28
2018-12-16T12:12:31.635Z,81.06
2018-12-16T12:15:01.573Z,80.79
2018-12-16T12:17:31.588Z,81.05
2018-12-16T12:20:01.597Z,81.76
2018-12-16T12:22:31.637Z,81.72
2018-12-16T12:25:01.638Z,82.20
2018-12-16T12:27:31.858Z,82.31
2018-12-16T12:30:01.870Z,82.21
2018-12-16T12:32:31.989Z,82.24
2018-12-16T12:35:02.058Z,82.69
2018-12-16T12:37:32.117Z,82.46
2018-12-16T12:40:02.138Z,81.63
2018-12-16T12:42:32.158Z,81.31
2018-12-16T12:45:02.142Z,80.33
2018-12-16T12:47:32.288Z,79.99
2018-12-16T12:50:02.399Z,80.03
2018-12-16T12:52:32.419Z,79.66
2018-12-16T12:55:02.562Z,77.76
2018-12-16T12:57:32.728Z,75.57
2018-12-16T13:00:02.823Z,74.16
2018-12-16T13:02:32.878Z,72.20
2018-12-16T13:05:02.908Z,70.68
2018-12-16T13:07:32.929Z,70.75
2018-12-16T13:10:03.138Z,69.65
2018-12-16T13:12:33.158Z,68.27
2018-12-16T13:15:03.092Z,71.40
2018-12-16T13:17:33.227Z,71.73
2018-12-16T13:20:03.222Z,73.93
2018-12-16T13:22:33.373Z,75.43
2018-12-16T13:27:54.743Z,74.77
2018-12-16T13:30:24.868Z,74.32
2018-12-16T13:32:54.797Z,75.83
2018-12-16T13:35:24.798Z,77.35
2018-12-16T13:37:54.909Z,77.98
2018-12-16T13:40:24.928Z,78.61
2018-12-16T13:42:55.148Z,79.80
2018-12-16T13:45:25.193Z,80.35
2018-12-16T13:47:55.292Z,80.45
2018-12-16T13:50:25.268Z,81.65
2018-12-16T13:52:55.303Z,81.95
2018-12-16T13:55:25.465Z,82.71
2018-12-16T13:57:55.741Z,82.88
2018-12-16T14:00:25.667Z,83.25
2018-12-16T14:02:55.619Z,83.58
2018-12-16T14:05:25.800Z,83.04
2018-12-16T14:07:55.946Z,83.16
2018-12-16T14:10:26.226Z,83.25
2018-12-16T14:12:56.259Z,83.55
2018-12-16T14:15:26.298Z,83.67
2018-12-16T14:17:56.407Z,83.64
2018-12-16T14:20:26.568Z,83.54
2018-12-16T14:22:56.708Z,83.96
2018-12-16T14:25:26.733Z,84.25
2018-12-16T14:27:56.732Z,84.50
2018-12-16T14:30:26.861Z,84.62
2018-12-16T14:32:56.878Z,84.30
2018-12-16T14:35:27.108Z,84.73
2018-12-16T14:37:57.481Z,85.28
2018-12-16T14:40:27.438Z,84.98
2018-12-16T14:42:57.392Z,85.23
2018-12-16T14:45:27.367Z,84.79
2018-12-16T14:47:57.391Z,84.33
2018-12-16T14:50:27.508Z,84.49
2018-12-16T14:52:57.473Z,83.83
2018-12-16T14:55:27.538Z,83.47
2018-12-16T14:57:57.658Z,83.27
2018-12-16T15:00:27.597Z,83.23
2018-12-16T15:02:57.788Z,81.58
2018-12-16T15:05:27.892Z,80.27
2018-12-16T15:07:57.938Z,80.37
2018-12-16T15:10:28.138Z,80.67
2018-12-16T15:12:58.223Z,80.91
2018-12-16T15:15:28.479Z,81.68
2018-12-16T15:17:58.811Z,81.89
2018-12-16T15:20:29.071Z,82.28
2018-12-16T15:22:59.137Z,82.43
2018-12-16T15:25:29.438Z,82.12
2018-12-16T15:27:59.491Z,82.18
2018-12-16T15:30:29.577Z,81.68
2018-12-16T15:32:59.687Z,81.70
2018-12-16T15:35:29.728Z,81.89
2018-12-16T15:38:00.258Z,81.64
2018-12-16T15:40:30.368Z,81.02
2018-12-16T15:43:00.503Z,81.24
2018-12-16T15:45:33.817Z,80.82
2018-12-16T15:48:03.788Z,80.12
2018-12-16T15:50:33.842Z,79.69
2018-12-16T15:53:03.818Z,80.27
2018-12-16T15:55:33.938Z,80.01
2018-12-16T15:58:04.068Z,79.71
2018-12-16T16:00:34.178Z,80.37
2018-12-16T16:03:04.301Z,80.60
2018-12-16T16:05:35.684Z,80.61
2018-12-16T16:08:05.821Z,81.35
2018-12-16T16:10:38.839Z,81.88
2018-12-16T16:13:09.077Z,82.18
2018-12-16T16:15:39.097Z,82.62
2018-12-16T16:18:09.092Z,83.14
2018-12-16T16:20:39.218Z,83.37
2018-12-16T16:23:10.397Z,83.31
2018-12-16T16:25:40.965Z,83.95
2018-12-16T16:28:11.107Z,84.08
2018-12-16T16:30:41.217Z,83.80
2018-12-16T16:33:11.332Z,84.02
2018-12-16T16:35:41.356Z,83.93
2018-12-16T16:38:15.457Z,83.69
2018-12-16T16:40:45.805Z,83.57
2018-12-16T16:43:16.201Z,83.87
2018-12-16T16:45:49.742Z,83.54
2018-12-16T16:48:21.832Z,83.93
2018-12-16T16:50:53.101Z,83.24
2018-12-16T16:53:24.622Z,83.17
2018-12-16T16:55:55.631Z,83.34
2018-12-16T16:58:26.947Z,82.58
2018-12-16T17:00:57.879Z,82.39
2018-12-16T17:03:30.182Z,82.17
2018-12-16T17:06:02.732Z,81.47
2018-12-16T17:08:33.862Z,81.07
2018-12-16T17:11:06.238Z,81.09
2018-12-16T17:13:37.543Z,80.97
2018-12-16T17:16:11.792Z,81.01
2018-12-16T17:18:42.523Z,81.12
2018-12-16T17:23:59.963Z,80.89
2018-12-16T17:26:33.248Z,81.16
2018-12-16T17:29:04.481Z,80.84
2018-12-16T17:31:34.538Z,81.10
2018-12-16T17:34:04.631Z,80.91
2018-12-16T17:36:37.850Z,80.90
2018-12-16T17:39:10.133Z,80.76
2018-12-16T17:41:40.371Z,80.43
2018-12-16T17:44:10.539Z,80.75
2018-12-16T17:46:40.546Z,80.66
2018-12-16T17:49:10.770Z,79.89
2018-12-16T17:51:42.218Z,100.00
2018-12-16T17:54:12.348Z,100.00
2018-12-16T17:56:43.197Z,100.00
2018-12-16T17:59:17.915Z,100.00
2018-12-16T18:01:45.263Z,100.00
2018-12-16T18:04:15.873Z,100.00
2018-12-16T18:08:15.663Z,78.31
2018-12-16T18:10:48.023Z,80.48
2018-12-16T18:13:18.808Z,69.23
2018-12-16T18:16:13.092Z,73.64
2018-12-16T18:18:44.132Z,75.44
2018-12-16T18:21:14.994Z,76.91
2018-12-16T18:23:45.996Z,77.81
2018-12-16T18:26:16.739Z,77.99
2018-12-16T18:28:48.689Z,78.21
2018-12-16T18:31:20.909Z,78.44
2018-12-16T18:33:51.334Z,78.07
2018-12-16T18:36:22.438Z,78.48
2018-12-16T18:38:54.092Z,78.35
2018-12-16T18:41:28.264Z,78.52
2018-12-16T18:43:59.557Z,79.15
2018-12-16T18:46:33.706Z,79.26
2018-12-16T18:49:04.898Z,79.62
2018-12-16T18:51:35.207Z,79.83
2018-12-16T18:54:05.698Z,80.07
2018-12-16T18:56:36.670Z,80.36
2018-12-16T18:59:08.094Z,79.68
2018-12-16T19:01:41.207Z,79.91
2018-12-16T19:04:11.983Z,79.73
2018-12-16T19:06:43.541Z,79.96
2018-12-16T19:09:16.688Z,80.66
2018-12-16T19:11:49.758Z,80.83
2018-12-16T19:14:21.217Z,80.54
2018-12-16T19:16:52.541Z,80.59
2018-12-16T19:19:24.931Z,80.51
2018-12-16T19:22:00.536Z,80.59
2018-12-16T19:24:30.680Z,81.18
2018-12-16T19:27:02.037Z,80.96
2018-12-16T19:29:41.124Z,81.29
2018-12-16T19:32:14.752Z,81.60
2018-12-16T19:34:50.572Z,82.06
2018-12-16T19:37:24.612Z,82.28
2018-12-16T19:42:38.589Z,82.30
2018-12-16T19:45:12.056Z,82.53
2018-12-16T19:47:46.464Z,82.45
2018-12-16T19:50:15.186Z,82.40
2018-12-16T19:52:48.721Z,82.33
2018-12-16T19:55:28.732Z,82.07
2018-12-16T19:58:03.771Z,82.25
2018-12-16T20:00:33.943Z,82.11
2018-12-16T20:03:13.043Z,82.03
2018-12-16T20:05:48.292Z,81.92
2018-12-16T20:08:21.355Z,81.13
2018-12-16T20:10:57.528Z,81.23
2018-12-16T20:13:29.253Z,80.93
2018-12-16T20:18:40.772Z,80.94
2018-12-16T20:21:16.193Z,80.70
2018-12-16T20:23:46.206Z,80.63
2018-12-16T20:26:17.058Z,80.76
2018-12-16T20:28:48.139Z,80.61
2018-12-16T20:31:19.427Z,81.23
2018-12-16T20:33:49.650Z,80.70
2018-12-16T20:36:23.106Z,81.09
2018-12-16T20:38:54.399Z,80.82
2018-12-16T20:41:32.137Z,80.27
2018-12-16T20:44:02.880Z,81.04
2018-12-16T20:46:36.071Z,81.19
2018-12-16T20:49:06.166Z,81.33
2018-12-16T20:51:36.956Z,81.23
2018-12-16T20:54:10.148Z,80.72
2018-12-16T20:56:40.863Z,80.25
2018-12-16T20:59:13.945Z,80.58
2018-12-16T21:01:45.057Z,80.28
2018-12-16T21:04:15.139Z,80.33
2018-12-16T21:06:48.212Z,80.63
2018-12-16T21:09:18.982Z,80.25
2018-12-16T21:11:57.972Z,79.69
2018-12-16T21:14:33.419Z,80.23
2018-12-16T21:17:09.076Z,80.11
2018-12-16T21:19:41.061Z,79.94
2018-12-16T21:22:15.092Z,80.10
2018-12-16T21:24:47.088Z,79.59
2018-12-16T21:30:00.287Z,79.88
2018-12-16T21:32:38.441Z,79.43
2018-12-16T21:35:10.492Z,79.67
2018-12-16T21:37:42.259Z,79.36
2018-12-16T21:42:55.442Z,79.07
2018-12-16T21:45:25.385Z,78.67
2018-12-16T21:47:56.740Z,79.15
2018-12-16T21:50:26.802Z,78.94
2018-12-16T21:52:56.887Z,78.91
2018-12-16T21:55:27.206Z,78.86
2018-12-16T21:57:58.757Z,79.19
2018-12-16T22:00:30.162Z,79.08
2018-12-16T22:03:08.231Z,79.47
2018-12-16T22:05:38.748Z,80.30
2018-12-16T22:08:08.833Z,80.39
2018-12-16T22:10:38.796Z,80.07
2018-12-16T22:13:08.785Z,79.61
2018-12-16T22:15:38.908Z,79.48
2018-12-16T22:18:10.179Z,78.86
2018-12-16T22:20:40.055Z,79.67
2018-12-16T22:23:10.247Z,79.16
2018-12-16T22:25:40.519Z,79.24
2018-12-16T22:28:10.617Z,79.19
2018-12-16T22:30:40.731Z,79.81
2018-12-16T22:33:10.858Z,79.77
2018-12-16T22:35:40.967Z,79.33
2018-12-16T22:38:10.923Z,79.77
2018-12-16T22:40:41.126Z,79.00
2018-12-16T22:43:11.232Z,78.92
2018-12-16T22:45:41.208Z,78.23
2018-12-16T22:48:11.189Z,78.43
2018-12-16T22:50:41.060Z,78.22
2018-12-16T22:53:11.279Z,78.09
2018-12-16T22:55:41.089Z,78.34
2018-12-16T22:58:11.117Z,77.74
2018-12-16T23:00:45.277Z,77.48
2018-12-16T23:03:15.351Z,78.10
2018-12-16T23:05:45.273Z,78.35
2018-12-16T23:08:15.266Z,77.82
2018-12-16T23:10:45.387Z,78.23
2018-12-16T23:13:15.663Z,78.72
2018-12-16T23:15:45.617Z,78.74
2018-12-16T23:18:15.631Z,78.62
2018-12-16T23:20:45.541Z,78.67
2018-12-16T23:23:15.668Z,78.04
2018-12-16T23:25:45.686Z,78.25
2018-12-16T23:28:17.531Z,79.05
2018-12-16T23:30:47.652Z,79.21
2018-12-16T23:33:17.978Z,78.98
2018-12-16T23:35:47.920Z,79.36
2018-12-16T23:38:17.907Z,79.09
2018-12-16T23:40:47.927Z,80.01
2018-12-16T23:43:18.168Z,79.85
2018-12-16T23:45:48.256Z,79.18
2018-12-16T23:48:18.267Z,78.67
2018-12-16T23:50:48.296Z,78.22
2018-12-16T23:53:18.400Z,78.59
2018-12-16T23:55:48.428Z,78.90
2018-12-16T23:58:18.509Z,79.13
